Time;durP1;ratioP1;P1;durP2;ratioP2;P2;SDS_P1;SDS_P2;PMS_P1;PMS_P2;Temp;Humidity;BMP_temperature;BMP_pressure;BME280_temperature;BME280_humidity;BME280_pressure;Samples;Min_cycle;Max_cycle;Signal;HPM_P1;HPM_P2
2021/06/12 00:00:12;;;;;;;40.57;32.03;;;18.20;90.20;;;;;;5050222;28;20064;-69
2021/06/12 00:02:59;;;;;;;39.90;31.63;;;18.30;90.20;;;;;;5035902;28;20045;-69
2021/06/12 00:05:45;;;;;;;39.33;31.30;;;18.30;90.20;;;;;;5035905;28;20486;-69
2021/06/12 00:08:31;;;;;;;40.53;29.83;;;18.30;90.20;;;;;;5035579;28;20057;-69
2021/06/12 00:11:17;;;;;;;42.13;30.57;;;18.30;90.30;;;;;;5035834;28;20045;-69
2021/06/12 00:14:03;;;;;;;38.93;30.63;;;18.30;90.20;;;;;;5035319;28;20072;-69
2021/06/12 00:16:49;;;;;;;38.73;31.80;;;18.30;90.30;;;;;;5036235;28;20053;-69
2021/06/12 00:19:34;;;;;;;35.03;27.33;;;18.30;90.20;;;;;;5036195;28;20052;-69
2021/06/12 00:22:16;;;;;;;39.70;31.00;;;18.30;90.20;;;;;;5049813;28;20462;-69
2021/06/12 00:24:43;;;;;;;42.67;32.93;;;18.30;90.20;;;;;;5054006;28;20084;-69
2021/06/12 00:27:10;;;;;;;45.37;34.60;;;18.30;90.30;;;;;;5054412;28;20060;-68
2021/06/12 00:29:36;;;;;;;44.57;34.60;;;18.20;90.40;;;;;;5053812;28;20053;-69
2021/06/12 00:32:07;;;;;;;42.20;33.72;;;18.20;90.40;;;;;;5054354;28;20079;-69
2021/06/12 00:34:33;;;;;;;42.53;33.03;;;18.20;90.50;;;;;;5054394;28;20060;-68
2021/06/12 00:37:01;;;;;;;42.37;32.13;;;18.20;90.60;;;;;;5053255;28;20473;-69
2021/06/12 00:39:41;;;;;;;40.63;32.47;;;18.20;90.60;;;;;;5054424;28;20049;-69
2021/06/12 00:42:07;;;;;;;41.10;32.17;;;18.20;90.70;;;;;;5053424;28;20556;-69
2021/06/12 00:44:48;;;;;;;;;;;18.20;90.80;;;;;;5054827;28;20072;-69
2021/06/12 00:47:14;;;;;;;42.23;32.73;;;18.20;90.70;;;;;;5053842;28;19920;-69
2021/06/12 00:49:40;;;;;;;47.40;34.13;;;18.20;90.70;;;;;;5053153;28;20565;-69
2021/06/12 00:52:15;;;;;;;45.00;35.27;;;18.20;90.80;;;;;;5053980;28;20129;-69
2021/06/12 00:54:41;;;;;;;49.47;36.10;;;18.20;90.80;;;;;;5053935;28;20554;-70
2021/06/12 00:57:07;;;;;;;42.73;34.73;;;18.20;90.90;;;;;;5053288;28;20440;-69
2021/06/12 00:59:34;;;;;;;45.50;34.93;;;18.20;90.90;;;;;;5054112;28;20409;-69
2021/06/12 01:02:00;;;;;;;47.53;35.10;;;18.20;91.00;;;;;;5053502;28;20060;-69
2021/06/12 01:04:27;;;;;;;49.60;35.93;;;18.20;91.00;;;;;;5053019;28;20095;-68
2021/06/12 01:06:58;;;;;;;45.45;33.97;;;18.20;91.00;;;;;;5053775;28;20073;-69
2021/06/12 01:09:44;;;;;;;42.97;34.03;;;18.20;91.00;;;;;;5039032;28;20144;-68
2021/06/12 01:12:47;;;;;;;42.07;34.40;;;18.20;91.10;;;;;;5038937;28;20055;-69
2021/06/12 01:15:40;;;;;;;41.70;32.03;;;18.20;91.00;;;;;;5038732;28;20048;-69
2021/06/12 01:18:32;;;;;;;46.07;34.27;;;18.20;91.00;;;;;;5038095;28;20504;-69
2021/06/12 01:21:44;;;;;;;;;;;18.20;91.00;;;;;;5039013;28;20060;-69
2021/06/12 01:24:48;;;;;;;40.17;31.85;;;18.20;90.90;;;;;;5038279;28;20274;-69
2021/06/12 01:27:54;;;;;;;34.27;27.70;;;18.20;90.80;;;;;;5038729;28;20410;-69
2021/06/12 01:30:42;;;;;;;43.53;33.67;;;18.20;90.80;;;;;;5038309;28;20520;-69
2021/06/12 01:33:28;;;;;;;43.53;33.57;;;18.10;90.90;;;;;;5038066;28;20100;-69
2021/06/12 01:36:15;;;;;;;41.97;33.23;;;18.10;91.00;;;;;;5037879;28;20052;-69
2021/06/12 01:39:03;;;;;;;40.27;34.00;;;18.20;91.10;;;;;;5037432;28;20063;-70
2021/06/12 01:41:53;;;;;;;43.53;33.13;;;18.10;91.00;;;;;;5038471;28;20114;-70
2021/06/12 01:44:40;;;;;;;43.67;34.10;;;18.10;91.50;;;;;;5038066;28;20482;-70
2021/06/12 01:47:26;;;;;;;42.30;31.87;;;18.10;91.10;;;;;;5037340;28;20557;-69
2021/06/12 01:50:15;;;;;;;42.50;33.80;;;18.10;91.10;;;;;;5038002;28;20060;-70
2021/06/12 01:52:42;;;;;;;41.90;33.27;;;18.10;91.10;;;;;;5052504;28;20053;-70
2021/06/12 01:55:30;;;;;;;42.60;33.50;;;18.10;91.60;;;;;;5038225;28;20084;-69
2021/06/12 01:58:22;;;;;;;37.50;30.43;;;18.10;91.20;;;;;;5037935;28;20053;-70
2021/06/12 02:01:10;;;;;;;;;;;18.10;91.20;;;;;;5037624;28;20049;-70
2021/06/12 02:03:57;;;;;;;40.57;31.33;;;18.10;91.10;;;;;;5037996;28;20265;-69
2021/06/12 02:06:43;;;;;;;44.67;34.90;;;18.10;91.10;;;;;;5037278;28;20056;-69
2021/06/12 02:09:31;;;;;;;42.63;33.50;;;18.10;91.10;;;;;;5037938;28;20056;-69
2021/06/12 02:12:18;;;;;;;41.37;32.73;;;18.10;91.30;;;;;;5037577;28;20492;-70
2021/06/12 02:15:08;;;;;;;45.50;36.23;;;18.10;91.30;;;;;;5036693;28;20118;-70
2021/06/12 02:18:00;;;;;;;44.87;33.90;;;18.10;91.30;;;;;;5037187;28;20410;-69
2021/06/12 02:20:49;;;;;;;40.38;33.13;;;18.00;91.30;;;;;;5036559;28;20494;-69
2021/06/12 02:23:35;;;;;;;42.30;32.87;;;18.10;91.40;;;;;;5037547;28;20044;-70
2021/06/12 02:26:25;;;;;;;44.60;34.37;;;18.10;91.40;;;;;;5037201;28;20080;-70
2021/06/12 02:29:12;;;;;;;43.40;33.13;;;18.10;91.40;;;;;;5036559;28;20091;-69
2021/06/12 02:32:08;;;;;;;38.40;33.43;;;18.10;91.40;;;;;;5036618;28;20059;-70
2021/06/12 02:34:54;;;;;;;38.90;30.97;;;18.10;91.40;;;;;;5036301;28;20075;-70
2021/06/12 02:37:41;;;;;;;38.30;32.33;;;18.00;91.40;;;;;;5037212;28;20103;-69
2021/06/12 02:40:27;;;;;;;48.27;35.07;;;18.00;91.40;;;;;;5036786;28;20049;-69
2021/06/12 02:43:14;;;;;;;40.93;32.60;;;18.00;91.50;;;;;;5036064;28;20084;-69
2021/06/12 02:46:11;;;;;;;41.73;34.57;;;18.00;91.60;;;;;;5036193;28;20049;-70
2021/06/12 02:49:05;;;;;;;45.03;34.53;;;18.00;91.60;;;;;;5036351;28;20045;-69
2021/06/12 02:52:10;;;;;;;44.20;33.57;;;18.00;91.60;;;;;;5037180;28;20136;-69
2021/06/12 02:55:01;;;;;;;44.20;33.93;;;17.90;91.70;;;;;;5036564;28;20060;-69
2021/06/12 02:57:48;;;;;;;41.33;33.17;;;17.90;91.80;;;;;;5036141;28;20064;-69
2021/06/12 03:00:35;;;;;;;41.53;33.40;;;17.90;91.80;;;;;;5037014;28;20110;-70
2021/06/12 03:03:21;;;;;;;42.03;31.90;;;17.90;91.80;;;;;;5035867;28;20075;-69
2021/06/12 03:06:08;;;;;;;40.40;32.67;;;17.90;91.80;;;;;;5036698;28;20048;-70
2021/06/12 03:08:55;;;;;;;46.07;33.93;;;17.90;91.80;;;;;;5036933;28;20060;-69
2021/06/12 03:11:41;;;;;;;44.77;34.43;;;17.90;91.80;;;;;;5036159;28;20270;-69
2021/06/12 03:14:31;;;;;;;43.67;33.93;;;17.90;91.80;;;;;;5036901;28;20045;-70
2021/06/12 03:16:58;;;;;;;43.70;33.80;;;17.90;91.90;;;;;;5050920;28;20053;-70
2021/06/12 03:19:45;;;;;;;42.10;33.13;;;17.90;91.90;;;;;;5036688;28;20127;-69
2021/06/12 03:22:33;;;;;;;43.97;34.60;;;17.90;92.00;;;;;;5036644;28;20060;-69
2021/06/12 03:25:22;;;;;;;48.43;34.10;;;17.90;92.00;;;;;;5035407;28;20596;-69
2021/06/12 03:28:07;;;;;;;36.77;30.67;;;17.80;92.00;;;;;;5035998;28;20106;-70
2021/06/12 03:30:34;;;;;;;42.50;33.43;;;17.90;92.10;;;;;;5051165;28;20455;-70
2021/06/12 03:33:04;;;;;;;43.80;34.07;;;17.90;92.10;;;;;;5050120;28;20413;-70
2021/06/12 03:35:31;;;;;;;46.47;35.03;;;17.90;92.10;;;;;;5051352;28;20049;-69
2021/06/12 03:37:58;;;;;;;46.27;34.63;;;17.90;92.10;;;;;;5050584;28;20049;-70
2021/06/12 03:40:24;;;;;;;46.40;34.43;;;17.80;92.10;;;;;;5051100;28;20052;-70
2021/06/12 03:43:10;;;;;;;45.20;34.57;;;17.80;92.30;;;;;;5036185;28;20049;-70
2021/06/12 03:45:41;;;;;;;48.03;35.33;;;17.80;92.20;;;;;;5050360;28;20059;-70
2021/06/12 03:48:09;;;;;;;43.23;33.50;;;17.80;92.20;;;;;;5050628;28;20442;-70
2021/06/12 03:50:42;;;;;;;45.47;35.60;;;17.80;92.30;;;;;;5051045;28;20045;-70
2021/06/12 03:53:43;;;;;;;45.50;34.83;;;17.80;92.30;;;;;;5035604;28;20045;-71
2021/06/12 03:56:34;;;;;;;50.03;36.58;;;17.80;92.30;;;;;;5036133;28;20138;-69
2021/06/12 03:59:22;;;;;;;43.72;34.35;;;17.80;92.30;;;;;;5038968;28;20490;-69
2021/06/12 04:02:08;;;;;;;43.67;34.77;;;17.80;92.30;;;;;;5039850;28;20153;-70
2021/06/12 04:04:56;;;;;;;46.37;35.07;;;17.80;92.20;;;;;;5040169;28;20049;-69
2021/06/12 04:07:42;;;;;;;46.77;36.73;;;17.80;92.20;;;;;;5039237;28;20045;-69
2021/06/12 04:10:28;;;;;;;46.13;35.33;;;17.80;92.20;;;;;;5040199;28;20138;-69
2021/06/12 04:12:54;;;;;;;45.87;36.00;;;17.80;92.20;;;;;;5053984;28;20080;-69
2021/06/12 04:15:21;;;;;;;45.63;35.43;;;17.80;92.10;;;;;;5054340;28;20048;-69
2021/06/12 04:18:09;;;;;;;44.00;34.63;;;17.80;92.10;;;;;;5039410;28;20052;-70
2021/06/12 04:20:55;;;;;;;45.07;33.47;;;17.80;92.10;;;;;;5038819;28;20547;-69
2021/06/12 04:23:42;;;;;;;44.50;33.93;;;17.70;92.00;;;;;;5039626;28;20529;-69
2021/06/12 04:26:30;;;;;;;47.33;31.50;;;17.80;92.00;;;;;;5039698;28;20049;-69
2021/06/12 04:29:16;;;;;;;42.03;32.40;;;17.80;92.00;;;;;;5038690;28;20045;-70
2021/06/12 04:32:02;;;;;;;39.90;31.63;;;17.80;92.00;;;;;;5039026;28;20072;-70
2021/06/12 04:34:47;;;;;;;46.57;34.13;;;17.80;91.90;;;;;;5038923;28;20064;-69
2021/06/12 04:37:33;;;;;;;40.93;32.13;;;17.90;91.90;;;;;;5039901;28;20045;-69
2021/06/12 04:40:19;;;;;;;39.37;32.27;;;17.90;91.80;;;;;;5039550;28;20144;-69
2021/06/12 04:43:06;;;;;;;38.37;30.50;;;17.90;91.70;;;;;;5038789;28;20052;-69
2021/06/12 04:45:33;;;;;;;38.70;29.97;;;18.00;91.60;;;;;;5054376;28;20462;-68
2021/06/12 04:48:09;;;;;;;44.40;31.20;;;18.00;91.60;;;;;;5053424;28;20060;-68
2021/06/12 04:50:38;;;;;;;35.93;28.33;;;18.00;91.50;;;;;;5054279;28;20049;-68
2021/06/12 04:53:08;;;;;;;36.97;28.83;;;18.00;91.50;;;;;;5054152;28;20115;-69
2021/06/12 04:55:42;;;;;;;38.30;27.60;;;18.00;91.40;;;;;;5053581;28;20106;-70
2021/06/12 04:58:10;;;;;;;36.83;28.00;;;18.00;91.30;;;;;;5054042;28;20051;-69
2021/06/12 05:00:43;;;;;;;32.90;26.17;;;18.00;91.30;;;;;;5054048;28;20049;-69
2021/06/12 05:03:14;;;;;;;29.30;24.37;;;18.00;91.20;;;;;;5053030;28;20111;-69
2021/06/12 05:05:49;;;;;;;32.93;24.93;;;18.00;91.20;;;;;;5053815;28;20461;-69
2021/06/12 05:08:17;;;;;;;32.97;25.30;;;17.90;91.10;;;;;;5053329;28;20173;-70
2021/06/12 05:10:55;;;;;;;28.70;23.30;;;17.90;91.00;;;;;;5052869;28;20072;-69
2021/06/12 05:13:23;;;;;;;33.43;24.20;;;17.90;91.00;;;;;;5053967;28;20055;-68
2021/06/12 05:15:48;;;;;;;32.63;23.57;;;18.00;91.00;;;;;;5053891;28;20445;-69
2021/06/12 05:18:17;;;;;;;30.37;22.70;;;18.00;91.00;;;;;;5052622;28;20049;-68
2021/06/12 05:20:42;;;;;;;26.60;20.87;;;18.00;91.00;;;;;;5053188;28;20052;-68
2021/06/12 05:23:09;;;;;;;26.73;19.53;;;17.90;91.00;;;;;;5052918;28;20132;-70
2021/06/12 05:25:42;;;;;;;25.77;17.83;;;17.90;90.90;;;;;;5053480;28;20063;-69
2021/06/12 05:28:08;;;;;;;25.37;18.07;;;17.90;90.70;;;;;;5053310;28;20056;-69
2021/06/12 05:30:40;;;;;;;25.47;16.80;;;17.90;90.70;;;;;;5052462;28;20189;-69
2021/06/12 05:33:09;;;;;;;24.90;17.97;;;17.90;90.70;;;;;;5052836;28;20041;-70
2021/06/12 05:35:37;;;;;;;23.60;16.80;;;17.90;90.70;;;;;;5053197;28;20194;-70
2021/06/12 05:38:03;;;;;;;22.70;16.63;;;17.90;90.70;;;;;;5051969;28;20545;-69
2021/06/12 05:40:31;;;;;;;25.07;16.57;;;17.90;90.70;;;;;;5053181;28;20100;-68
2021/06/12 05:42:57;;;;;;;23.80;16.20;;;18.00;90.70;;;;;;5053248;28;20429;-69
2021/06/12 05:45:24;;;;;;;23.77;17.00;;;18.00;90.60;;;;;;5052689;28;20053;-70
2021/06/12 05:47:50;;;;;;;24.70;16.30;;;18.00;90.50;;;;;;5052879;28;20502;-69
2021/06/12 05:50:16;;;;;;;22.43;15.80;;;18.00;90.40;;;;;;5052684;28;20052;-69
2021/06/12 05:52:43;;;;;;;27.10;16.20;;;18.00;90.40;;;;;;5052192;28;20041;-71
2021/06/12 05:55:15;;;;;;;21.73;15.47;;;18.00;90.30;;;;;;5052669;28;20060;-70
2021/06/12 05:57:41;;;;;;;22.40;15.70;;;18.00;90.30;;;;;;5052785;28;20338;-70
2021/06/12 06:00:11;;;;;;;17.03;13.90;;;18.00;90.30;;;;;;5051677;28;20057;-72
2021/06/12 06:02:45;;;;;;;20.33;14.13;;;18.10;90.20;;;;;;5052783;28;20049;-70
2021/06/12 06:05:11;;;;;;;20.83;13.23;;;18.10;89.90;;;;;;5052468;28;20060;-70
2021/06/12 06:07:37;;;;;;;17.10;12.13;;;18.10;89.50;;;;;;5051939;28;20091;-67
2021/06/12 06:10:05;;;;;;;16.77;11.63;;;18.10;89.10;;;;;;5052010;28;20044;-68
2021/06/12 06:12:35;;;;;;;15.43;11.37;;;18.20;88.60;;;;;;5051690;28;20051;-68
2021/06/12 06:15:11;;;;;;;17.47;11.33;;;18.20;88.20;;;;;;5051849;28;20053;-68
2021/06/12 06:17:39;;;;;;;16.43;12.50;;;18.10;87.90;;;;;;5052398;28;20051;-68
2021/06/12 06:20:07;;;;;;;14.53;11.90;;;18.20;87.70;;;;;;5051077;28;20490;-67
2021/06/12 06:22:34;;;;;;;15.90;12.87;;;18.20;87.70;;;;;;5052321;28;20174;-67
2021/06/12 06:25:03;;;;;;;19.43;11.73;;;18.20;87.70;;;;;;5051911;28;20354;-69
2021/06/12 06:27:30;;;;;;;15.00;11.17;;;18.10;87.00;;;;;;5051630;28;20053;-67
2021/06/12 06:29:59;;;;;;;17.40;11.07;;;18.20;86.90;;;;;;5052155;28;20090;-69
2021/06/12 06:32:28;;;;;;;13.37;9.87;;;18.20;86.60;;;;;;5052279;28;20053;-68
2021/06/12 06:34:55;;;;;;;17.57;11.13;;;18.20;86.20;;;;;;5051512;28;20132;-68
2021/06/12 06:37:23;;;;;;;12.73;10.00;;;18.20;86.20;;;;;;5051902;28;20083;-69
2021/06/12 06:39:52;;;;;;;13.63;7.93;;;18.30;85.50;;;;;;5051993;28;20071;-70
2021/06/12 06:42:24;;;;;;;12.33;7.33;;;18.20;84.60;;;;;;5051529;28;20187;-69
2021/06/12 06:44:53;;;;;;;14.60;7.53;;;18.30;83.60;;;;;;5052241;28;20454;-69
2021/06/12 06:47:18;;;;;;;13.33;8.63;;;18.20;83.30;;;;;;5051570;28;20462;-69
2021/06/12 06:49:45;;;;;;;11.40;7.67;;;18.30;83.40;;;;;;5051222;28;20059;-70
2021/06/12 06:52:31;;;;;;;10.60;6.83;;;18.30;83.20;;;;;;5036183;28;20106;-70
2021/06/12 06:54:57;;;;;;;10.57;6.90;;;18.30;83.00;;;;;;5050664;28;20048;-70
2021/06/12 06:57:23;;;;;;;14.67;7.73;;;18.30;82.40;;;;;;5051244;28;20053;-69
2021/06/12 06:59:49;;;;;;;13.40;7.70;;;18.30;82.20;;;;;;5051442;28;20170;-69
2021/06/12 07:02:15;;;;;;;14.30;8.17;;;18.30;82.30;;;;;;5049719;28;20060;-70
2021/06/12 07:04:41;;;;;;;12.93;7.30;;;18.40;82.50;;;;;;5050592;28;20056;-70
2021/06/12 07:07:08;;;;;;;10.93;7.53;;;18.40;82.50;;;;;;5050572;28;20037;-70
2021/06/12 07:09:34;;;;;;;10.77;6.50;;;18.50;82.20;;;;;;5050069;28;20048;-72
2021/06/12 07:12:03;;;;;;;12.57;7.03;;;18.50;81.70;;;;;;5047925;28;20049;-69
2021/06/12 07:14:30;;;;;;;13.70;6.30;;;18.50;82.20;;;;;;5051086;28;20044;-69
2021/06/12 07:16:59;;;;;;;12.57;6.80;;;18.60;81.00;;;;;;5049884;28;20409;-69
2021/06/12 07:19:29;;;;;;;8.98;5.13;;;18.60;81.00;;;;;;5051195;28;20131;-69
2021/06/12 07:21:55;;;;;;;12.30;6.70;;;18.60;80.50;;;;;;5051058;28;20395;-69
2021/06/12 07:24:24;;;;;;;9.33;6.13;;;18.70;80.20;;;;;;5050361;28;20071;-69
2021/06/12 07:26:50;;;;;;;11.87;6.13;;;18.70;79.80;;;;;;5050864;28;20053;-69
2021/06/12 07:29:16;;;;;;;8.90;4.63;;;18.80;78.80;;;;;;5050569;28;20449;-72
2021/06/12 07:31:52;;;;;;;13.57;4.80;;;18.70;77.20;;;;;;5049322;28;20449;-69
2021/06/12 07:34:18;;;;;;;9.77;3.63;;;18.60;77.10;;;;;;5050597;28;20052;-69
2021/06/12 07:36:44;;;;;;;9.23;4.60;;;18.70;77.30;;;;;;5050690;28;20056;-70
2021/06/12 07:39:10;;;;;;;12.13;4.20;;;18.70;76.80;;;;;;5050039;28;20128;-69
2021/06/12 07:41:38;;;;;;;8.50;4.07;;;18.80;76.70;;;;;;5050897;28;20048;-72
2021/06/12 07:44:05;;;;;;;11.43;4.13;;;18.80;75.90;;;;;;5050167;28;20059;-70
2021/06/12 07:46:32;;;;;;;9.87;4.10;;;18.80;76.10;;;;;;5050776;28;20044;-69
2021/06/12 07:48:57;;;;;;;12.10;4.20;;;18.80;75.80;;;;;;5050709;28;20059;-71
2021/06/12 07:51:24;;;;;;;7.03;3.63;;;18.90;75.00;;;;;;5050101;28;20063;-69
2021/06/12 07:53:50;;;;;;;7.47;4.13;;;18.90;74.80;;;;;;5051312;28;20053;-69
2021/06/12 07:56:16;;;;;;;11.03;3.63;;;19.00;74.60;;;;;;5050378;28;20646;-74
2021/06/12 07:58:41;;;;;;;8.53;3.53;;;19.00;74.30;;;;;;5032213;28;20053;-71
2021/06/12 08:01:07;;;;;;;9.87;4.03;;;18.90;73.50;;;;;;5049987;28;20120;-69
2021/06/12 08:03:35;;;;;;;7.07;3.20;;;18.80;72.60;;;;;;5050608;28;20470;-69
2021/06/12 08:06:01;;;;;;;7.63;3.13;;;18.70;72.60;;;;;;5049636;28;20100;-70
2021/06/12 08:08:27;;;;;;;6.43;3.97;;;18.70;72.50;;;;;;5050675;28;20064;-70
2021/06/12 08:10:53;;;;;;;7.37;3.07;;;18.60;72.70;;;;;;5050679;28;20053;-70
2021/06/12 08:13:18;;;;;;;10.63;3.50;;;18.70;72.80;;;;;;5049524;28;20064;-69
2021/06/12 08:15:44;;;;;;;7.00;2.70;;;18.80;72.60;;;;;;5050663;28;20378;-69
2021/06/12 08:18:10;;;;;;;10.87;3.10;;;18.80;71.60;;;;;;5050163;28;20041;-70
2021/06/12 08:20:36;;;;;;;8.63;3.20;;;19.00;71.00;;;;;;5050134;28;20443;-70
2021/06/12 08:23:03;;;;;;;6.37;3.17;;;19.00;70.80;;;;;;5050069;28;20100;-70
2021/06/12 08:25:30;;;;;;;8.97;2.57;;;19.10;70.40;;;;;;5050403;28;20470;-69
2021/06/12 08:28:01;;;;;;;4.40;2.43;;;19.10;69.70;;;;;;5049500;28;20446;-71
2021/06/12 08:30:29;;;;;;;7.47;2.40;;;18.90;69.20;;;;;;5050219;28;20417;-69
2021/06/12 08:32:55;;;;;;;6.73;3.00;;;18.80;69.70;;;;;;5050147;28;20410;-70
2021/06/12 08:35:21;;;;;;;8.73;2.70;;;18.80;70.10;;;;;;5049303;28;20049;-69
2021/06/12 08:37:47;;;;;;;9.83;2.73;;;18.90;70.30;;;;;;5049965;28;20048;-70
2021/06/12 08:40:13;;;;;;;9.07;3.03;;;19.00;69.80;;;;;;5049075;28;20448;-70
2021/06/12 08:42:39;;;;;;;9.90;2.93;;;19.00;69.30;;;;;;5050049;28;20051;-69
2021/06/12 08:45:06;;;;;;;6.20;2.50;;;19.00;69.10;;;;;;5051511;28;20493;-69
2021/06/12 08:47:37;;;;;;;7.63;2.67;;;18.90;68.90;;;;;;5053258;28;20114;-69
2021/06/12 08:50:04;;;;;;;;;;;18.90;67.90;;;;;;5053290;28;20057;-69
2021/06/12 08:52:30;;;;;;;10.60;2.60;;;18.80;67.10;;;;;;5053524;28;19970;-69
2021/06/12 08:54:57;;;;;;;9.13;3.00;;;18.80;68.60;;;;;;5052952;28;20114;-68
2021/06/12 08:57:22;;;;;;;9.00;2.40;;;18.80;68.10;;;;;;5053551;28;20057;-68
2021/06/12 08:59:48;;;;;;;6.73;2.60;;;18.80;68.00;;;;;;5053805;28;20049;-70
2021/06/12 09:02:14;;;;;;;9.43;2.90;;;18.80;69.20;;;;;;5052715;28;20051;-70
2021/06/12 09:04:44;;;;;;;9.33;2.30;;;18.90;67.50;;;;;;5053685;28;20037;-69
2021/06/12 09:07:21;;;;;;;7.83;2.40;;;19.10;66.50;;;;;;5053775;28;20052;-70
2021/06/12 09:09:49;;;;;;;5.37;1.73;;;19.10;66.00;;;;;;5052823;28;20045;-69
2021/06/12 09:12:15;;;;;;;5.83;2.07;;;19.20;66.70;;;;;;5053318;28;20045;-69
2021/06/12 09:14:41;;;;;;;6.93;2.27;;;19.30;66.70;;;;;;5053588;28;20049;-72
2021/06/12 09:17:06;;;;;;;4.97;1.80;;;19.40;66.30;;;;;;5052485;28;20053;-70
2021/06/12 09:19:40;;;;;;;5.77;1.80;;;19.50;65.80;;;;;;5052853;28;20106;-70
2021/06/12 09:22:09;;;;;;;7.07;1.93;;;19.40;63.50;;;;;;5053094;28;20135;-69
2021/06/12 09:24:42;;;;;;;6.13;1.50;;;19.50;65.20;;;;;;5052241;28;20122;-69
2021/06/12 09:27:12;;;;;;;4.47;1.60;;;19.60;63.40;;;;;;5053033;28;20044;-69
2021/06/12 09:29:41;;;;;;;5.67;1.67;;;19.60;63.40;;;;;;5052423;28;20056;-69
2021/06/12 09:32:22;;;;;;;4.57;1.40;;;19.70;62.60;;;;;;5052906;28;20072;-69
2021/06/12 09:34:50;;;;;;;6.53;1.70;;;19.90;61.80;;;;;;5052616;28;20052;-69
2021/06/12 09:37:22;;;;;;;6.53;1.70;;;20.00;62.30;;;;;;5052206;28;20195;-69
2021/06/12 09:40:02;;;;;;;4.22;1.55;;;20.00;61.70;;;;;;5052466;28;20136;-69
2021/06/12 09:42:47;;;;;;;7.47;1.73;;;19.90;59.90;;;;;;5053178;28;20060;-68
2021/06/12 09:45:26;;;;;;;3.63;1.47;;;19.70;60.30;;;;;;5051549;28;20059;-69
2021/06/12 09:48:10;;;;;;;6.13;2.00;;;19.70;60.30;;;;;;5052946;28;20052;-69
2021/06/12 09:50:36;;;;;;;8.10;1.80;;;19.80;59.50;;;;;;5052132;28;20060;-68
2021/06/12 09:53:22;;;;;;;6.77;1.87;;;20.00;60.40;;;;;;5052401;28;20053;-67
2021/06/12 09:55:49;;;;;;;6.33;1.67;;;20.10;59.60;;;;;;5052355;28;20049;-68
2021/06/12 09:58:15;;;;;;;4.60;1.60;;;20.20;59.60;;;;;;5051543;28;20055;-71
2021/06/12 10:00:45;;;;;;;4.47;1.50;;;20.20;58.70;;;;;;5052849;28;20083;-68
2021/06/12 10:03:22;;;;;;;5.03;1.30;;;20.20;58.10;;;;;;5052274;28;20187;-69
2021/06/12 10:05:49;;;;;;;5.80;1.87;;;20.10;57.90;;;;;;5051741;28;20435;-69
2021/06/12 10:08:16;;;;;;;5.97;1.90;;;20.20;58.00;;;;;;5052424;28;20083;-68
2021/06/12 10:10:50;;;;;;;8.20;1.70;;;20.20;57.70;;;;;;5052978;28;20076;-68
2021/06/12 10:13:18;;;;;;;6.40;2.00;;;20.20;57.50;;;;;;5051384;28;20423;-69
2021/06/12 10:15:49;;;;;;;6.33;1.77;;;20.20;57.30;;;;;;5052090;28;20194;-68
2021/06/12 10:18:21;;;;;;;5.85;1.60;;;20.40;57.20;;;;;;5051509;28;20044;-68
2021/06/12 10:20:47;;;;;;;4.63;1.60;;;20.50;57.40;;;;;;5050949;28;20041;-67
2021/06/12 10:23:14;;;;;;;5.60;1.77;;;20.60;57.30;;;;;;5051286;28;20055;-68
2021/06/12 10:25:40;;;;;;;9.77;1.67;;;20.50;56.40;;;;;;5051091;28;20049;-69
2021/06/12 10:28:06;;;;;;;4.90;1.73;;;20.40;57.20;;;;;;5052016;28;20086;-71
2021/06/12 10:30:33;;;;;;;5.60;1.77;;;20.30;57.80;;;;;;5051778;28;20056;-70
2021/06/12 10:32:59;;;;;;;9.53;2.33;;;20.30;57.50;;;;;;5050616;28;20048;-68
2021/06/12 10:35:26;;;;;;;14.70;2.70;;;20.50;57.50;;;;;;5052046;28;20056;-67
2021/06/12 10:37:58;;;;;;;7.47;2.07;;;20.70;57.50;;;;;;5051967;28;20056;-68
2021/06/12 10:40:47;;;;;;;5.40;1.50;;;20.80;56.50;;;;;;5051116;28;20045;-69
2021/06/12 10:43:26;;;;;;;8.43;2.03;;;20.80;55.70;;;;;;5051708;28;20448;-69
2021/06/12 10:46:14;;;;;;;5.27;1.63;;;20.70;56.00;;;;;;5052307;28;20052;-68
2021/06/12 10:49:00;;;;;;;7.70;1.83;;;20.60;56.20;;;;;;5050698;28;20159;-69
2021/06/12 10:51:26;;;;;;;9.73;2.33;;;20.40;56.20;;;;;;5051663;28;20048;-68
2021/06/12 10:54:26;;;;;;;6.33;2.23;;;20.10;57.90;;;;;;5050908;28;20048;-69
2021/06/12 10:57:13;;;;;;;7.43;2.10;;;20.00;58.10;;;;;;5051527;28;20057;-71
2021/06/12 10:59:40;;;;;;;5.00;1.70;;;20.10;58.40;;;;;;5051508;28;20048;-67
2021/06/12 11:04:55;;;;;;;7.17;2.07;;;20.40;57.50;;;;;;5051293;28;20051;-67
2021/06/12 11:07:27;;;;;;;7.80;2.80;;;20.30;58.10;;;;;;5050626;28;20045;-67
2021/06/12 11:10:14;;;;;;;7.17;1.93;;;20.10;58.50;;;;;;5050274;28;20053;-68
2021/06/12 11:12:41;;;;;;;6.93;1.70;;;19.90;58.80;;;;;;5038036;28;20174;-69
2021/06/12 11:15:22;;;;;;;8.47;2.07;;;19.90;59.30;;;;;;5050452;28;20459;-67
2021/06/12 11:18:10;;;;;;;9.47;2.80;;;19.90;59.50;;;;;;5051408;28;20056;-67
2021/06/12 11:20:37;;;;;;;5.93;2.17;;;19.90;59.80;;;;;;5051028;28;20151;-68
2021/06/12 11:23:04;;;;;;;10.53;2.03;;;19.90;59.50;;;;;;5050119;28;20141;-67
2021/06/12 11:25:30;;;;;;;10.30;2.63;;;19.90;59.90;;;;;;5051141;28;20037;-67
2021/06/12 11:28:16;;;;;;;8.73;2.40;;;19.80;60.30;;;;;;5051076;28;20056;-67
2021/06/12 11:30:42;;;;;;;10.47;2.67;;;19.70;61.10;;;;;;5050294;28;20498;-67
2021/06/12 11:33:12;;;;;;;13.13;3.23;;;19.60;61.20;;;;;;5050668;28;20075;-69
2021/06/12 11:35:37;;;;;;;7.20;1.87;;;19.70;61.00;;;;;;5050834;28;20447;-69
2021/06/12 11:38:04;;;;;;;9.43;2.37;;;19.70;60.70;;;;;;5049993;28;20045;-70
2021/06/12 11:40:30;;;;;;;5.67;1.90;;;19.70;60.50;;;;;;5050979;28;20579;-68
2021/06/12 11:42:59;;;;;;;7.73;1.80;;;19.80;59.60;;;;;;5050809;28;20263;-70
2021/06/12 11:45:33;;;;;;;9.03;1.60;;;19.90;58.60;;;;;;5051030;28;20049;-69
2021/06/12 11:48:20;;;;;;;8.47;1.60;;;20.00;57.70;;;;;;5050527;28;20041;-68
2021/06/12 11:50:49;;;;;;;5.73;1.70;;;20.00;57.90;;;;;;5050115;28;20053;-68
2021/06/12 11:53:16;;;;;;;5.97;1.67;;;20.00;57.70;;;;;;5050626;28;20048;-69
2021/06/12 11:55:43;;;;;;;4.77;1.33;;;19.90;57.40;;;;;;5050679;28;20068;-68
2021/06/12 11:58:09;;;;;;;7.27;1.73;;;19.90;57.10;;;;;;5049297;28;20462;-71
2021/06/12 12:00:36;;;;;;;6.53;1.70;;;19.90;56.50;;;;;;5050578;28;20052;-70
2021/06/12 12:03:13;;;;;;;3.97;1.60;;;19.90;56.40;;;;;;5049624;28;20144;-68
2021/06/12 12:05:40;;;;;;;4.90;1.47;;;20.00;56.00;;;;;;5050033;28;20320;-69
2021/06/12 12:08:22;;;;;;;8.57;1.60;;;19.80;55.80;;;;;;5050445;28;20131;-68
2021/06/12 12:10:51;;;;;;;4.70;1.23;;;19.60;55.60;;;;;;5050593;28;20079;-70
2021/06/12 12:13:37;;;;;;;5.87;1.30;;;19.50;56.10;;;;;;5049471;28;20057;-72
2021/06/12 12:16:23;;;;;;;5.30;1.10;;;19.70;56.10;;;;;;5049645;28;20056;-71
2021/06/12 12:18:54;;;;;;;4.17;1.13;;;19.90;55.40;;;;;;5050910;28;20045;-70
2021/06/12 12:21:30;;;;;;;6.35;1.52;;;20.00;55.70;;;;;;5053838;28;20103;-71
2021/06/12 12:23:56;;;;;;;4.90;1.27;;;20.20;55.00;;;;;;5054456;28;20045;-69
2021/06/12 12:26:22;;;;;;;4.37;1.37;;;20.20;55.30;;;;;;5053244;28;20048;-69
2021/06/12 12:29:03;;;;;;;5.57;1.50;;;20.20;54.80;;;;;;5054412;28;20049;-69
2021/06/12 12:31:32;;;;;;;8.60;1.85;;;20.30;54.60;;;;;;5053959;28;20056;-70
2021/06/12 12:33:59;;;;;;;9.80;2.07;;;20.30;55.00;;;;;;5052837;28;20438;-70
2021/06/12 12:36:27;;;;;;;7.87;1.70;;;20.20;55.30;;;;;;5054105;28;20389;-70
2021/06/12 12:38:54;;;;;;;247.00;174.23;;;20.10;55.50;;;;;;5054477;28;20056;-71
2021/06/12 12:41:20;;;;;;;11.07;3.63;;;20.00;56.50;;;;;;5052578;28;20049;-71
2021/06/12 12:43:45;;;;;;;5.87;1.70;;;19.80;57.10;;;;;;5054060;28;20102;-71
2021/06/12 12:46:11;;;;;;;9.63;2.10;;;19.70;57.40;;;;;;5053548;28;20060;-71
2021/06/12 12:48:41;;;;;;;4.77;1.60;;;19.70;57.40;;;;;;5053276;28;20060;-70
2021/06/12 12:51:06;;;;;;;8.57;1.90;;;19.70;57.00;;;;;;5054051;28;20047;-71
2021/06/12 12:53:40;;;;;;;6.97;2.00;;;19.60;57.20;;;;;;5053315;28;20127;-71
2021/06/12 12:56:08;;;;;;;7.67;1.60;;;19.60;57.70;;;;;;5053586;28;20486;-70
2021/06/12 12:58:36;;;;;;;8.17;1.93;;;19.50;57.60;;;;;;5053858;28;20045;-69
2021/06/12 13:01:06;;;;;;;5.53;1.77;;;19.40;57.90;;;;;;5052478;28;20083;-69
2021/06/12 13:03:51;;;;;;;7.13;2.10;;;19.30;58.30;;;;;;5053796;28;20048;-71
2021/06/12 13:06:40;;;;;;;9.47;1.93;;;19.20;58.30;;;;;;5053481;28;20332;-71
2021/06/12 13:09:17;;;;;;;5.73;1.70;;;19.20;57.80;;;;;;5052575;28;20056;-70
2021/06/12 13:11:54;;;;;;;5.53;1.77;;;19.10;58.40;;;;;;5053737;28;20190;-70
2021/06/12 13:14:38;;;;;;;5.07;1.63;;;19.00;59.20;;;;;;5052927;28;20045;-70
2021/06/12 13:17:07;;;;;;;7.23;1.90;;;18.90;59.40;;;;;;5053256;28;20101;-69